createdAt,value
2018-11-29T00:01:58.902Z,22.58
2018-11-29T00:04:25.674Z,22.58
2018-11-29T00:06:52.307Z,22.59
2018-11-29T00:09:18.951Z,22.63
2018-11-29T00:11:45.605Z,22.63
2018-11-29T00:14:12.462Z,22.58
2018-11-29T00:16:39.100Z,22.56
2018-11-29T00:19:05.736Z,22.61
2018-11-29T00:21:32.577Z,22.68
2018-11-29T00:23:59.229Z,22.53
2018-11-29T00:26:25.885Z,22.52
2018-11-29T00:28:52.522Z,22.55
2018-11-29T00:31:19.178Z,22.58
2018-11-29T00:33:45.820Z,22.58
2018-11-29T00:36:12.466Z,22.58
2018-11-29T00:38:39.106Z,22.52
2018-11-29T00:41:05.766Z,22.50
2018-11-29T00:43:32.406Z,22.58
2018-11-29T00:45:59.047Z,22.61
2018-11-29T00:48:25.691Z,22.55
2018-11-29T00:50:52.337Z,22.55
2018-11-29T00:53:18.982Z,22.53
2018-11-29T00:55:45.633Z,22.55
2018-11-29T00:58:12.345Z,22.46
2018-11-29T01:00:39.008Z,22.51
2018-11-29T01:03:05.654Z,22.55
2018-11-29T01:05:32.352Z,22.57
2018-11-29T01:07:58.994Z,22.48
2018-11-29T01:10:25.642Z,22.40
2018-11-29T01:12:52.286Z,22.45
2018-11-29T01:15:18.937Z,22.50
2018-11-29T01:17:45.578Z,22.48
2018-11-29T01:20:12.245Z,22.46
2018-11-29T01:22:38.990Z,22.47
2018-11-29T01:25:05.626Z,22.43
2018-11-29T01:27:32.344Z,22.46
2018-11-29T01:29:58.997Z,22.50
2018-11-29T01:32:25.642Z,22.51
2018-11-29T01:34:52.301Z,22.52
2018-11-29T01:37:18.945Z,22.47
2018-11-29T01:39:45.596Z,22.47
2018-11-29T01:42:12.227Z,22.47
2018-11-29T01:44:38.881Z,22.50
2018-11-29T01:47:05.518Z,22.52
2018-11-29T01:49:32.178Z,22.56
2018-11-29T01:51:58.819Z,22.42
2018-11-29T01:54:25.468Z,22.38
2018-11-29T01:56:52.170Z,22.43
2018-11-29T01:59:18.822Z,22.45
2018-11-29T02:01:45.461Z,22.42
2018-11-29T02:04:12.106Z,22.42
2018-11-29T02:06:38.752Z,22.41
2018-11-29T02:09:05.411Z,22.42
2018-11-29T02:11:32.047Z,22.42
2018-11-29T02:13:58.692Z,22.41
2018-11-29T02:16:25.337Z,22.41
2018-11-29T02:18:51.989Z,22.42
2018-11-29T02:21:18.625Z,22.38
2018-11-29T02:23:46.622Z,22.40
2018-11-29T02:26:11.954Z,22.33
2018-11-29T02:28:38.724Z,22.43
2018-11-29T02:31:08.481Z,22.43
2018-11-29T02:33:35.138Z,22.49
2018-11-29T02:36:01.836Z,22.39
2018-11-29T02:38:28.472Z,22.33
2018-11-29T02:40:55.174Z,22.37
2018-11-29T02:43:21.814Z,22.40
2018-11-29T02:45:48.504Z,22.44
2018-11-29T02:48:15.143Z,22.35
2018-11-29T02:50:41.799Z,22.40
2018-11-29T02:53:08.435Z,22.37
2018-11-29T02:55:35.123Z,22.38
2018-11-29T02:58:01.762Z,22.35
2018-11-29T03:00:28.587Z,22.26
2018-11-29T03:02:55.234Z,22.39
2018-11-29T03:05:21.877Z,22.39
2018-11-29T03:07:48.532Z,22.36
2018-11-29T03:10:15.174Z,22.41
2018-11-29T03:12:41.833Z,22.42
2018-11-29T03:15:08.461Z,22.40
2018-11-29T03:17:35.152Z,22.43
2018-11-29T03:20:01.797Z,22.41
2018-11-29T03:22:28.441Z,22.31
2018-11-29T03:24:55.097Z,22.26
2018-11-29T03:27:21.742Z,22.34
2018-11-29T03:29:48.452Z,22.35
2018-11-29T03:32:15.095Z,22.32
2018-11-29T03:34:41.737Z,22.32
2018-11-29T03:37:08.381Z,22.13
2018-11-29T03:39:36.081Z,22.27
2018-11-29T03:42:01.679Z,22.35
2018-11-29T03:44:28.365Z,22.36
2018-11-29T03:46:55.000Z,22.30
2018-11-29T03:49:21.660Z,22.34
2018-11-29T03:51:48.298Z,22.31
2018-11-29T03:54:14.934Z,22.30
2018-11-29T03:56:41.593Z,22.32
2018-11-29T03:59:08.231Z,22.31
2018-11-29T04:01:34.881Z,22.38
2018-11-29T04:04:01.541Z,22.32
2018-11-29T04:06:28.172Z,22.26
2018-11-29T04:08:54.840Z,22.22
2018-11-29T04:11:21.484Z,22.24
2018-11-29T04:13:48.122Z,22.27
2018-11-29T04:16:14.761Z,22.25
2018-11-29T04:18:41.418Z,22.13
2018-11-29T04:21:08.049Z,21.30
2018-11-29T04:23:34.700Z,20.80
2018-11-29T04:26:01.358Z,20.64
2018-11-29T04:28:28.010Z,20.40
2018-11-29T04:30:54.705Z,20.57
2018-11-29T04:33:21.350Z,20.17
2018-11-29T04:35:47.985Z,19.88
2018-11-29T04:38:14.675Z,20.26
2018-11-29T04:40:41.319Z,20.49
2018-11-29T04:43:07.973Z,20.07
2018-11-29T04:45:34.623Z,20.05
2018-11-29T04:48:02.695Z,19.95
2018-11-29T04:50:27.917Z,19.97
2018-11-29T04:52:54.630Z,20.44
2018-11-29T04:55:21.399Z,20.83
2018-11-29T04:57:48.046Z,21.15
2018-11-29T05:00:14.691Z,21.20
2018-11-29T05:02:41.386Z,21.33
2018-11-29T05:05:08.035Z,21.44
2018-11-29T05:07:34.781Z,21.40
2018-11-29T05:10:01.477Z,21.48
2018-11-29T05:12:28.114Z,21.45
2018-11-29T05:14:54.770Z,21.71
2018-11-29T05:17:21.422Z,21.56
2018-11-29T05:19:48.070Z,21.73
2018-11-29T05:22:14.766Z,21.75
2018-11-29T05:24:41.410Z,21.62
2018-11-29T05:27:08.042Z,21.61
2018-11-29T05:29:34.697Z,21.61
2018-11-29T05:32:01.334Z,21.64
2018-11-29T05:34:27.973Z,21.71
2018-11-29T05:36:54.622Z,21.73
2018-11-29T05:39:21.318Z,21.77
2018-11-29T05:41:47.958Z,21.74
2018-11-29T05:44:14.609Z,21.75
2018-11-29T05:46:41.258Z,21.72
2018-11-29T05:49:07.944Z,21.70
2018-11-29T05:51:34.640Z,21.67
2018-11-29T05:54:01.379Z,21.70
2018-11-29T05:56:28.016Z,21.76
2018-11-29T05:58:54.688Z,21.75
2018-11-29T06:01:21.381Z,21.82
2018-11-29T06:03:48.034Z,21.83
2018-11-29T06:06:14.677Z,22.17
2018-11-29T06:08:41.322Z,21.99
2018-11-29T06:11:07.961Z,22.02
2018-11-29T06:13:34.622Z,22.01
2018-11-29T06:16:01.270Z,22.01
2018-11-29T06:18:27.914Z,22.07
2018-11-29T06:20:54.559Z,22.06
2018-11-29T06:23:21.249Z,21.97
2018-11-29T06:25:47.886Z,21.98
2018-11-29T06:28:14.581Z,21.93
2018-11-29T06:30:41.222Z,22.01
2018-11-29T06:33:07.882Z,22.01
2018-11-29T06:35:34.534Z,22.29
2018-11-29T06:38:01.178Z,22.24
2018-11-29T06:40:27.841Z,22.20
2018-11-29T06:42:56.781Z,22.17
2018-11-29T06:45:24.784Z,22.15
2018-11-29T06:47:50.060Z,22.25
2018-11-29T06:50:16.713Z,22.35
2018-11-29T06:52:43.360Z,22.31
2018-11-29T06:55:10.013Z,22.46
2018-11-29T06:57:36.653Z,22.41
2018-11-29T07:00:03.361Z,22.44
2018-11-29T07:02:30.044Z,22.52
2018-11-29T07:04:56.698Z,22.39
2018-11-29T07:07:23.339Z,22.34
2018-11-29T07:09:49.978Z,22.37
2018-11-29T07:12:16.696Z,22.55
2018-11-29T07:14:43.335Z,22.56
2018-11-29T07:17:09.978Z,22.55
2018-11-29T07:19:36.679Z,22.56
2018-11-29T07:22:05.225Z,22.45
2018-11-29T07:24:30.034Z,22.39
2018-11-29T07:26:56.673Z,22.35
2018-11-29T07:29:23.381Z,22.50
2018-11-29T07:31:50.071Z,22.62
2018-11-29T07:34:16.729Z,22.58
2018-11-29T07:36:43.401Z,22.51
2018-11-29T07:39:10.118Z,22.73
2018-11-29T07:41:36.756Z,22.66
2018-11-29T07:44:03.434Z,22.72
2018-11-29T07:46:30.081Z,22.75
2018-11-29T07:48:56.737Z,22.77
2018-11-29T07:51:23.391Z,22.50
2018-11-29T07:53:50.080Z,22.37
2018-11-29T07:56:16.717Z,22.34
2018-11-29T07:58:43.450Z,22.28
2018-11-29T08:01:10.229Z,22.30
2018-11-29T08:03:36.876Z,22.43
2018-11-29T08:06:03.570Z,22.50
2018-11-29T08:08:30.226Z,22.33
2018-11-29T08:10:58.839Z,22.40
2018-11-29T08:13:23.556Z,22.47
2018-11-29T08:15:52.527Z,22.43
2018-11-29T08:18:16.917Z,22.37
2018-11-29T08:20:43.548Z,22.38
2018-11-29T08:23:10.198Z,22.41
2018-11-29T08:25:36.859Z,22.46
2018-11-29T08:28:03.599Z,22.43
2018-11-29T08:30:30.299Z,22.48
2018-11-29T08:32:57.017Z,22.47
2018-11-29T08:35:23.665Z,22.35
2018-11-29T08:37:50.340Z,22.26
2018-11-29T08:40:17.042Z,22.25
2018-11-29T08:42:43.718Z,22.21
2018-11-29T08:45:10.375Z,22.46
2018-11-29T08:47:37.167Z,22.43
2018-11-29T08:50:03.866Z,22.55
2018-11-29T08:52:30.540Z,22.60
2018-11-29T08:54:57.210Z,22.73
2018-11-29T08:57:23.915Z,22.88
2018-11-29T08:59:50.657Z,22.99
2018-11-29T09:02:17.390Z,23.03
2018-11-29T09:04:45.399Z,22.90
2018-11-29T09:07:10.768Z,23.15
2018-11-29T09:09:37.414Z,23.11
2018-11-29T09:12:04.128Z,23.05
2018-11-29T09:14:31.335Z,23.09
2018-11-29T09:16:58.145Z,23.11
2018-11-29T09:19:24.834Z,23.16
2018-11-29T09:21:51.523Z,23.05
2018-11-29T09:24:18.510Z,22.95
2018-11-29T09:26:45.209Z,22.99
2018-11-29T09:29:11.943Z,23.29
2018-11-29T09:31:38.596Z,23.07
2018-11-29T09:34:05.278Z,23.08
2018-11-29T09:36:31.914Z,23.11
2018-11-29T09:38:58.606Z,23.39
2018-11-29T09:41:25.259Z,23.35
2018-11-29T09:43:51.918Z,23.37
2018-11-29T09:46:18.719Z,23.23
2018-11-29T09:48:45.371Z,23.24
2018-11-29T09:51:12.011Z,23.23
2018-11-29T09:53:39.736Z,23.25
2018-11-29T09:56:06.438Z,23.40
2018-11-29T09:58:33.091Z,23.60
2018-11-29T10:00:59.790Z,23.60
2018-11-29T10:03:26.441Z,23.28
2018-11-29T10:05:53.083Z,22.97
2018-11-29T10:08:25.919Z,23.04
2018-11-29T10:10:46.399Z,22.77
2018-11-29T10:13:13.093Z,22.88
2018-11-29T10:15:39.733Z,22.74
2018-11-29T10:18:06.390Z,22.74
2018-11-29T10:20:33.035Z,23.03
2018-11-29T10:23:02.519Z,22.97
2018-11-29T10:25:29.173Z,22.99
2018-11-29T10:27:55.892Z,23.39
2018-11-29T10:30:22.537Z,23.33
2018-11-29T10:32:49.314Z,23.37
2018-11-29T10:35:16.019Z,23.32
2018-11-29T10:37:42.656Z,23.61
2018-11-29T10:40:09.296Z,23.51
2018-11-29T10:42:36.068Z,23.65
2018-11-29T10:45:02.758Z,23.75
2018-11-29T10:47:29.512Z,23.48
2018-11-29T10:49:56.209Z,23.10
2018-11-29T10:52:22.917Z,23.17
2018-11-29T10:54:49.584Z,23.11
2018-11-29T10:57:16.234Z,23.13
2018-11-29T10:59:42.907Z,23.15
2018-11-29T11:02:09.587Z,23.29
2018-11-29T11:04:36.283Z,23.40
2018-11-29T11:07:03.068Z,23.35
2018-11-29T11:09:29.736Z,23.31
2018-11-29T11:11:56.450Z,23.47
2018-11-29T11:14:23.082Z,23.67
2018-11-29T11:16:49.742Z,23.54
2018-11-29T11:19:16.474Z,23.64
2018-11-29T11:21:43.186Z,23.87
2018-11-29T11:24:10.204Z,23.67
2018-11-29T11:26:36.838Z,23.75
2018-11-29T11:29:03.633Z,23.84
2018-11-29T11:31:31.251Z,23.71
2018-11-29T11:33:57.160Z,23.63
2018-11-29T11:36:23.802Z,23.20
2018-11-29T11:38:50.529Z,23.51
2018-11-29T11:41:20.153Z,23.39
2018-11-29T11:43:46.798Z,23.39
2018-11-29T11:46:14.582Z,23.37
2018-11-29T11:48:41.321Z,23.41
2018-11-29T11:51:07.985Z,23.46
2018-11-29T11:53:34.653Z,23.54
2018-11-29T11:56:01.454Z,23.70
2018-11-29T11:58:28.152Z,23.60
2018-11-29T12:00:54.933Z,23.65
2018-11-29T12:03:21.641Z,23.59
2018-11-29T12:05:48.295Z,23.75
2018-11-29T12:08:14.947Z,24.05
2018-11-29T12:10:41.639Z,23.86
2018-11-29T12:13:08.342Z,23.86
2018-11-29T12:15:34.987Z,23.83
2018-11-29T12:18:01.637Z,23.96
2018-11-29T12:20:28.364Z,23.94
2018-11-29T12:22:55.069Z,23.87
2018-11-29T12:25:21.715Z,23.86
2018-11-29T12:27:48.398Z,23.96
2018-11-29T12:30:15.069Z,24.01
2018-11-29T12:32:41.716Z,24.01
2018-11-29T12:35:08.576Z,23.90
2018-11-29T12:37:35.237Z,23.72
2018-11-29T12:40:01.877Z,23.64
2018-11-29T12:42:28.572Z,23.60
2018-11-29T12:44:55.227Z,23.31
2018-11-29T12:47:22.009Z,23.17
2018-11-29T12:49:48.662Z,23.39
2018-11-29T12:52:15.429Z,23.39
2018-11-29T12:54:42.134Z,23.57
2018-11-29T12:57:09.850Z,23.37
2018-11-29T12:59:36.504Z,23.44
2018-11-29T13:02:03.225Z,23.44
2018-11-29T13:04:30.280Z,23.36
2018-11-29T13:06:56.931Z,23.41
2018-11-29T13:09:23.601Z,23.44
2018-11-29T13:11:50.269Z,23.31
2018-11-29T13:14:17.106Z,23.47
2018-11-29T13:16:43.692Z,23.72
2018-11-29T13:19:10.345Z,23.88
2018-11-29T13:21:36.997Z,23.54
2018-11-29T13:24:03.748Z,23.53
2018-11-29T13:26:30.308Z,23.71
2018-11-29T13:28:56.961Z,24.01
2018-11-29T13:31:23.628Z,23.96
2018-11-29T13:33:50.316Z,23.65
2018-11-29T13:36:16.930Z,23.54
2018-11-29T13:38:43.574Z,23.51
2018-11-29T13:41:10.232Z,23.46
2018-11-29T13:43:36.901Z,23.40
2018-11-29T13:46:03.558Z,23.38
2018-11-29T13:48:31.271Z,23.33
2018-11-29T13:50:57.976Z,23.27
2018-11-29T13:53:24.637Z,23.34
2018-11-29T13:55:51.292Z,23.48
2018-11-29T13:58:19.156Z,23.54
2018-11-29T14:00:45.897Z,23.40
2018-11-29T14:03:12.630Z,23.31
2018-11-29T14:05:39.336Z,23.27
2018-11-29T14:08:05.984Z,23.23
2018-11-29T14:10:32.702Z,23.26
2018-11-29T14:12:59.377Z,23.12
2018-11-29T14:15:26.042Z,22.99
2018-11-29T14:17:52.711Z,23.01
2018-11-29T14:20:19.387Z,23.01
2018-11-29T14:22:46.035Z,22.88
2018-11-29T14:25:12.695Z,22.91
2018-11-29T14:27:39.356Z,23.09
2018-11-29T14:30:06.001Z,23.20
2018-11-29T14:32:32.679Z,23.08
2018-11-29T14:34:59.449Z,23.07
2018-11-29T14:37:26.241Z,23.05
2018-11-29T14:39:52.882Z,23.03
2018-11-29T14:42:19.751Z,23.00
2018-11-29T14:44:46.427Z,23.02
2018-11-29T14:47:13.101Z,22.97
2018-11-29T14:49:39.747Z,23.17
2018-11-29T14:52:08.093Z,23.08
2018-11-29T14:54:33.052Z,23.04
2018-11-29T14:56:59.699Z,22.97
2018-11-29T14:59:27.472Z,22.99
2018-11-29T15:01:54.143Z,22.95
2018-11-29T15:04:20.823Z,23.01
2018-11-29T15:06:47.453Z,23.15
2018-11-29T15:09:14.524Z,23.43
2018-11-29T15:11:41.240Z,23.39
2018-11-29T15:14:07.961Z,23.38
2018-11-29T15:16:34.621Z,23.49
2018-11-29T15:19:01.280Z,23.49
2018-11-29T15:21:27.998Z,23.32
2018-11-29T15:23:54.703Z,23.18
2018-11-29T15:26:21.403Z,23.09
2018-11-29T15:28:48.055Z,23.06
2018-11-29T15:31:14.727Z,23.09
2018-11-29T15:33:41.435Z,23.01
2018-11-29T15:36:08.152Z,22.83
2018-11-29T15:38:34.843Z,22.87
2018-11-29T15:41:01.492Z,22.90
2018-11-29T15:43:28.148Z,22.81
2018-11-29T15:45:57.490Z,22.91
2018-11-29T15:48:24.187Z,22.79
2018-11-29T15:50:50.983Z,22.88
2018-11-29T15:53:17.626Z,22.88
2018-11-29T15:55:44.269Z,22.88
2018-11-29T15:58:10.970Z,23.02
2018-11-29T16:00:37.621Z,23.04
2018-11-29T16:03:04.278Z,23.02
2018-11-29T16:05:30.930Z,23.13
2018-11-29T16:07:57.736Z,23.12
2018-11-29T16:10:24.453Z,23.33
2018-11-29T16:12:51.091Z,23.02
2018-11-29T16:15:17.729Z,22.68
2018-11-29T16:17:44.402Z,22.49
2018-11-29T16:20:11.560Z,22.37
2018-11-29T16:22:38.252Z,22.57
2018-11-29T16:25:04.894Z,22.66
2018-11-29T16:27:31.609Z,22.61
2018-11-29T16:29:58.257Z,22.62
2018-11-29T16:32:24.959Z,22.61
2018-11-29T16:34:51.646Z,22.74
2018-11-29T16:37:18.285Z,22.81
2018-11-29T16:39:44.955Z,22.80
2018-11-29T16:42:12.073Z,23.08
2018-11-29T16:44:38.787Z,22.98
2018-11-29T16:47:05.481Z,22.91
2018-11-29T16:49:32.116Z,22.90
2018-11-29T16:51:58.754Z,22.75
2018-11-29T16:54:25.458Z,22.88
2018-11-29T16:56:52.100Z,22.83
2018-11-29T16:59:18.803Z,22.87
2018-11-29T17:01:45.496Z,22.87
2018-11-29T17:04:12.148Z,22.87
2018-11-29T17:06:38.849Z,22.84
2018-11-29T17:09:05.605Z,22.88
2018-11-29T17:11:32.292Z,22.90
2018-11-29T17:13:58.937Z,22.86
2018-11-29T17:16:25.598Z,22.84
2018-11-29T17:18:52.253Z,22.87
2018-11-29T17:21:18.890Z,23.02
2018-11-29T17:23:45.545Z,22.92
2018-11-29T17:26:12.191Z,22.91
2018-11-29T17:28:38.829Z,22.86
2018-11-29T17:31:05.468Z,22.77
2018-11-29T17:33:32.124Z,22.59
2018-11-29T17:35:58.770Z,22.62
2018-11-29T17:38:25.426Z,22.63
2018-11-29T17:40:52.081Z,22.59
2018-11-29T17:43:18.804Z,22.57
2018-11-29T17:45:45.462Z,22.58
2018-11-29T17:48:12.118Z,22.63
2018-11-29T17:50:38.756Z,22.63
2018-11-29T17:53:05.408Z,22.65
2018-11-29T17:55:32.069Z,22.70
2018-11-29T17:57:58.714Z,22.63
2018-11-29T18:00:25.411Z,22.66
2018-11-29T18:02:52.028Z,22.67
2018-11-29T18:05:18.685Z,22.73
2018-11-29T18:07:45.320Z,22.68
2018-11-29T18:10:11.994Z,22.71
2018-11-29T18:12:38.636Z,22.72
2018-11-29T18:15:05.295Z,22.72
2018-11-29T18:17:31.936Z,22.68
2018-11-29T18:19:58.589Z,22.74
2018-11-29T18:22:25.245Z,22.68
2018-11-29T18:24:51.913Z,22.64
2018-11-29T18:27:18.568Z,22.69
2018-11-29T18:29:45.242Z,22.72
2018-11-29T18:32:14.715Z,22.74
2018-11-29T18:34:41.366Z,22.69
2018-11-29T18:37:08.023Z,22.75
2018-11-29T18:39:34.659Z,22.68
2018-11-29T18:42:01.309Z,22.50
2018-11-29T18:44:27.970Z,22.50
2018-11-29T18:46:54.629Z,22.45
2018-11-29T18:49:21.278Z,22.55
2018-11-29T18:51:47.927Z,22.47
2018-11-29T18:54:14.582Z,22.48
2018-11-29T18:56:41.307Z,22.55
2018-11-29T18:59:07.950Z,22.51
2018-11-29T19:01:34.601Z,22.52
2018-11-29T19:04:01.242Z,22.70
2018-11-29T19:06:29.230Z,22.68
2018-11-29T19:08:54.579Z,22.64
2018-11-29T19:11:21.350Z,22.61
2018-11-29T19:13:47.901Z,22.58
2018-11-29T19:16:14.554Z,22.59
2018-11-29T19:18:41.218Z,22.59
2018-11-29T19:21:07.865Z,22.58
2018-11-29T19:23:35.267Z,22.61
2018-11-29T19:26:01.248Z,22.58
2018-11-29T19:28:27.903Z,22.59
2018-11-29T19:30:54.593Z,22.58
2018-11-29T19:33:21.341Z,22.59
2018-11-29T19:35:47.997Z,22.58
2018-11-29T19:38:14.689Z,22.57
2018-11-29T19:40:41.364Z,22.59
2018-11-29T19:43:07.976Z,22.62
2018-11-29T19:45:34.616Z,22.60
2018-11-29T19:48:01.254Z,22.61
2018-11-29T19:50:27.950Z,22.63
2018-11-29T19:52:54.592Z,22.54
2018-11-29T19:55:21.243Z,22.57
2018-11-29T19:57:47.881Z,22.57
2018-11-29T20:00:14.521Z,22.52
2018-11-29T20:02:41.186Z,22.55
2018-11-29T20:05:07.831Z,22.57
2018-11-29T20:07:34.478Z,22.51
2018-11-29T20:10:01.118Z,22.34
2018-11-29T20:12:27.757Z,22.37
2018-11-29T20:14:54.418Z,22.39
2018-11-29T20:17:21.061Z,22.35
2018-11-29T20:19:47.718Z,22.33
2018-11-29T20:22:14.354Z,22.30
2018-11-29T20:24:41.004Z,22.37
2018-11-29T20:27:07.639Z,22.34
2018-11-29T20:29:34.303Z,22.37
2018-11-29T20:32:00.960Z,22.37
2018-11-29T20:34:27.927Z,22.38
2018-11-29T20:36:54.571Z,22.39
2018-11-29T20:39:21.228Z,22.41
2018-11-29T20:41:47.877Z,22.41
2018-11-29T20:44:14.535Z,22.42
2018-11-29T20:46:41.172Z,22.42
2018-11-29T20:49:07.861Z,22.41
2018-11-29T20:51:34.503Z,22.44
2018-11-29T20:54:01.155Z,22.38
2018-11-29T20:56:27.874Z,22.44
2018-11-29T20:58:54.515Z,22.43
2018-11-29T21:01:21.188Z,22.42
2018-11-29T21:03:47.792Z,22.49
2018-11-29T21:06:14.446Z,22.51
2018-11-29T21:08:41.139Z,22.41
2018-11-29T21:11:07.776Z,22.45
2018-11-29T21:13:34.420Z,22.46
2018-11-29T21:16:01.122Z,22.29
2018-11-29T21:18:27.766Z,22.20
2018-11-29T21:20:54.424Z,22.19
2018-11-29T21:23:21.061Z,22.21
2018-11-29T21:25:47.702Z,22.22
2018-11-29T21:28:14.412Z,22.21
2018-11-29T21:30:41.080Z,22.22
2018-11-29T21:33:07.712Z,22.25
2018-11-29T21:35:34.404Z,22.29
2018-11-29T21:38:01.049Z,22.31
2018-11-29T21:40:27.685Z,22.32
2018-11-29T21:42:54.338Z,22.36
2018-11-29T21:45:21.000Z,22.34
2018-11-29T21:47:47.645Z,22.35
2018-11-29T21:50:14.292Z,22.37
2018-11-29T21:52:40.930Z,22.29
2018-11-29T21:55:07.605Z,22.33
2018-11-29T21:57:34.324Z,22.37
2018-11-29T22:00:00.973Z,22.39
2018-11-29T22:02:27.626Z,22.36
2018-11-29T22:04:54.273Z,22.38
2018-11-29T22:07:23.640Z,22.38
2018-11-29T22:09:50.294Z,22.40
2018-11-29T22:12:16.929Z,22.35
2018-11-29T22:14:43.630Z,22.42
2018-11-29T22:17:10.265Z,22.36
2018-11-29T22:19:36.921Z,22.38
2018-11-29T22:22:03.573Z,22.27
2018-11-29T22:24:30.221Z,22.19
2018-11-29T22:26:56.914Z,22.21
2018-11-29T22:29:23.556Z,22.23
2018-11-29T22:31:50.217Z,22.19
2018-11-29T22:34:16.900Z,22.16
2018-11-29T22:36:43.561Z,22.20
2018-11-29T22:39:10.241Z,22.20
2018-11-29T22:41:36.890Z,22.18
2018-11-29T22:44:03.576Z,22.22
2018-11-29T22:46:30.214Z,22.25
2018-11-29T22:48:56.852Z,22.25
2018-11-29T22:51:23.520Z,22.27
2018-11-29T22:53:50.159Z,22.23
2018-11-29T22:56:16.897Z,22.24
2018-11-29T22:58:43.499Z,22.25
2018-11-29T23:01:10.279Z,22.25
2018-11-29T23:03:36.910Z,22.26
2018-11-29T23:06:03.622Z,22.19
2018-11-29T23:08:30.277Z,22.23
2018-11-29T23:10:56.933Z,22.27
2018-11-29T23:13:23.570Z,22.24
2018-11-29T23:15:50.261Z,22.24
2018-11-29T23:18:16.906Z,22.24
2018-11-29T23:20:43.546Z,22.23
2018-11-29T23:23:10.201Z,22.21
2018-11-29T23:25:36.841Z,22.21
2018-11-29T23:28:03.531Z,22.13
2018-11-29T23:30:30.231Z,22.11
2018-11-29T23:32:56.890Z,22.05
2018-11-29T23:35:23.536Z,22.01
2018-11-29T23:37:50.181Z,21.98
2018-11-29T23:40:16.824Z,22.01
2018-11-29T23:42:43.472Z,22.03
2018-11-29T23:45:10.116Z,22.02
2018-11-29T23:47:36.801Z,22.05
2018-11-29T23:50:03.437Z,22.02
2018-11-29T23:52:30.089Z,22.07
2018-11-29T23:54:56.733Z,22.07
2018-11-29T23:57:23.384Z,22.09
2018-11-29T23:59:50.024Z,22.14
